sensor_id;sensor_type;location;lat;lon;timestamp;temperature;humidity
23769;DHT22;12064;50.890;5.424;2022-07-11T00:02:30;27.90;62.00
23769;DHT22;12064;50.890;5.424;2022-07-11T00:11:24;27.90;62.10
23769;DHT22;12064;50.890;5.424;2022-07-11T00:20:15;27.80;62.20
23769;DHT22;12064;50.890;5.424;2022-07-11T00:29:06;27.90;62.50
23769;DHT22;12064;50.890;5.424;2022-07-11T00:37:57;27.90;62.30
23769;DHT22;12064;50.890;5.424;2022-07-11T00:46:49;27.80;62.50
23769;DHT22;12064;50.890;5.424;2022-07-11T00:55:42;27.80;62.60
23769;DHT22;12064;50.890;5.424;2022-07-11T01:04:35;27.80;62.50
23769;DHT22;12064;50.890;5.424;2022-07-11T01:13:26;27.70;62.90
23769;DHT22;12064;50.890;5.424;2022-07-11T01:22:22;27.70;62.70
23769;DHT22;12064;50.890;5.424;2022-07-11T01:31:14;27.70;62.70
23769;DHT22;12064;50.890;5.424;2022-07-11T01:40:05;27.60;62.70
23769;DHT22;12064;50.890;5.424;2022-07-11T01:48:56;27.60;62.70
23769;DHT22;12064;50.890;5.424;2022-07-11T01:57:46;27.60;62.70
23769;DHT22;12064;50.890;5.424;2022-07-11T02:06:37;27.60;62.60
23769;DHT22;12064;50.890;5.424;2022-07-11T02:15:29;27.50;63.00
23769;DHT22;12064;50.890;5.424;2022-07-11T02:24:20;27.50;62.70
23769;DHT22;12064;50.890;5.424;2022-07-11T02:33:11;27.40;62.90
23769;DHT22;12064;50.890;5.424;2022-07-11T02:42:05;27.50;62.70
23769;DHT22;12064;50.890;5.424;2022-07-11T02:50:56;27.50;62.70
23769;DHT22;12064;50.890;5.424;2022-07-11T02:59:47;27.50;62.60
23769;DHT22;12064;50.890;5.424;2022-07-11T03:08:40;27.40;62.70
23769;DHT22;12064;50.890;5.424;2022-07-11T03:17:31;27.30;62.70
23769;DHT22;12064;50.890;5.424;2022-07-11T03:26:23;27.40;62.50
23769;DHT22;12064;50.890;5.424;2022-07-11T03:35:15;27.30;62.70
23769;DHT22;12064;50.890;5.424;2022-07-11T03:44:24;27.30;62.90
23769;DHT22;12064;50.890;5.424;2022-07-11T03:53:20;27.30;63.20
23769;DHT22;12064;50.890;5.424;2022-07-11T04:02:13;27.20;63.80
23769;DHT22;12064;50.890;5.424;2022-07-11T04:11:04;27.30;63.90
23769;DHT22;12064;50.890;5.424;2022-07-11T04:19:55;27.30;64.20
23769;DHT22;12064;50.890;5.424;2022-07-11T04:28:45;27.30;63.80
23769;DHT22;12064;50.890;5.424;2022-07-11T04:37:37;27.30;63.70
23769;DHT22;12064;50.890;5.424;2022-07-11T04:46:31;27.20;63.30
23769;DHT22;12064;50.890;5.424;2022-07-11T04:55:23;27.30;63.30
23769;DHT22;12064;50.890;5.424;2022-07-11T05:04:14;26.90;64.80
23769;DHT22;12064;50.890;5.424;2022-07-11T05:13:05;26.70;66.20
23769;DHT22;12064;50.890;5.424;2022-07-11T05:21:56;26.70;68.60
23769;DHT22;12064;50.890;5.424;2022-07-11T05:30:49;26.50;70.20
23769;DHT22;12064;50.890;5.424;2022-07-11T05:39:40;26.40;70.90
23769;DHT22;12064;50.890;5.424;2022-07-11T05:48:30;26.30;71.40
23769;DHT22;12064;50.890;5.424;2022-07-11T05:57:21;26.20;71.50
23769;DHT22;12064;50.890;5.424;2022-07-11T06:06:15;26.30;71.90
23769;DHT22;12064;50.890;5.424;2022-07-11T06:15:08;26.30;72.30
23769;DHT22;12064;50.890;5.424;2022-07-11T06:23:59;26.20;72.50
23769;DHT22;12064;50.890;5.424;2022-07-11T06:32:49;26.40;71.80
23769;DHT22;12064;50.890;5.424;2022-07-11T06:41:40;26.50;71.70
23769;DHT22;12064;50.890;5.424;2022-07-11T06:50:31;26.70;70.80
23769;DHT22;12064;50.890;5.424;2022-07-11T06:59:22;26.80;70.30
23769;DHT22;12064;50.890;5.424;2022-07-11T07:08:40;26.90;69.90
23769;DHT22;12064;50.890;5.424;2022-07-11T07:17:36;26.70;71.10
23769;DHT22;12064;50.890;5.424;2022-07-11T07:26:26;26.60;71.30
23769;DHT22;12064;50.890;5.424;2022-07-11T07:35:18;26.70;72.40
23769;DHT22;12064;50.890;5.424;2022-07-11T07:44:12;26.70;71.40
23769;DHT22;12064;50.890;5.424;2022-07-11T07:53:02;26.90;70.20
23769;DHT22;12064;50.890;5.424;2022-07-11T08:01:54;27.00;70.30
23769;DHT22;12064;50.890;5.424;2022-07-11T08:10:45;27.00;70.40
23769;DHT22;12064;50.890;5.424;2022-07-11T08:19:35;26.90;70.50
23769;DHT22;12064;50.890;5.424;2022-07-11T08:28:26;27.00;70.00
23769;DHT22;12064;50.890;5.424;2022-07-11T08:37:20;27.10;69.90
23769;DHT22;12064;50.890;5.424;2022-07-11T08:46:11;27.20;69.80
23769;DHT22;12064;50.890;5.424;2022-07-11T08:55:05;27.20;69.50
23769;DHT22;12064;50.890;5.424;2022-07-11T09:04:00;27.30;69.20
23769;DHT22;12064;50.890;5.424;2022-07-11T09:13:03;27.30;69.20
23769;DHT22;12064;50.890;5.424;2022-07-11T09:31:17;27.30;69.00
23769;DHT22;12064;50.890;5.424;2022-07-11T09:40:12;27.30;69.00
23769;DHT22;12064;50.890;5.424;2022-07-11T09:49:03;27.30;68.90
23769;DHT22;12064;50.890;5.424;2022-07-11T09:57:54;27.30;69.10
23769;DHT22;12064;50.890;5.424;2022-07-11T10:06:45;27.30;69.00
23769;DHT22;12064;50.890;5.424;2022-07-11T10:15:37;27.40;68.70
23769;DHT22;12064;50.890;5.424;2022-07-11T10:24:47;27.30;69.00
23769;DHT22;12064;50.890;5.424;2022-07-11T10:34:06;27.30;68.90
23769;DHT22;12064;50.890;5.424;2022-07-11T10:43:38;27.20;69.20
23769;DHT22;12064;50.890;5.424;2022-07-11T10:52:34;27.20;69.40
23769;DHT22;12064;50.890;5.424;2022-07-11T11:01:27;27.30;69.10
23769;DHT22;12064;50.890;5.424;2022-07-11T11:19:50;27.50;68.40
23769;DHT22;12064;50.890;5.424;2022-07-11T11:29:01;27.50;68.60
23769;DHT22;12064;50.890;5.424;2022-07-11T11:37:55;27.50;68.20
23769;DHT22;12064;50.890;5.424;2022-07-11T11:46:50;27.60;68.30
23769;DHT22;12064;50.890;5.424;2022-07-11T11:55:45;27.60;68.10
23769;DHT22;12064;50.890;5.424;2022-07-11T12:04:38;27.60;68.10
23769;DHT22;12064;50.890;5.424;2022-07-11T12:13:30;27.70;68.10
23769;DHT22;12064;50.890;5.424;2022-07-11T12:22:20;27.70;67.90
23769;DHT22;12064;50.890;5.424;2022-07-11T12:31:13;27.70;67.70
23769;DHT22;12064;50.890;5.424;2022-07-11T12:40:04;27.70;67.70
23769;DHT22;12064;50.890;5.424;2022-07-11T12:49:00;27.70;67.70
23769;DHT22;12064;50.890;5.424;2022-07-11T12:58:08;27.80;67.50
23769;DHT22;12064;50.890;5.424;2022-07-11T13:07:31;27.70;67.20
23769;DHT22;12064;50.890;5.424;2022-07-11T13:16:40;27.70;67.70
23769;DHT22;12064;50.890;5.424;2022-07-11T13:25:31;27.80;67.30
23769;DHT22;12064;50.890;5.424;2022-07-11T13:34:22;27.80;67.20
23769;DHT22;12064;50.890;5.424;2022-07-11T13:43:14;27.80;67.20
23769;DHT22;12064;50.890;5.424;2022-07-11T13:52:06;27.90;66.90
23769;DHT22;12064;50.890;5.424;2022-07-11T14:00:58;27.80;66.90
23769;DHT22;12064;50.890;5.424;2022-07-11T14:09:48;27.80;67.00
23769;DHT22;12064;50.890;5.424;2022-07-11T14:18:39;27.80;66.90
23769;DHT22;12064;50.890;5.424;2022-07-11T14:27:30;27.80;67.00
23769;DHT22;12064;50.890;5.424;2022-07-11T14:36:21;27.80;67.00
23769;DHT22;12064;50.890;5.424;2022-07-11T14:45:17;27.90;67.00
23769;DHT22;12064;50.890;5.424;2022-07-11T14:54:09;27.90;67.20
23769;DHT22;12064;50.890;5.424;2022-07-11T15:03:00;27.90;67.00
23769;DHT22;12064;50.890;5.424;2022-07-11T15:12:09;27.90;67.10
23769;DHT22;12064;50.890;5.424;2022-07-11T15:21:13;28.00;67.10
23769;DHT22;12064;50.890;5.424;2022-07-11T15:30:04;27.90;67.10
23769;DHT22;12064;50.890;5.424;2022-07-11T15:38:56;27.90;67.10
23769;DHT22;12064;50.890;5.424;2022-07-11T15:47:46;28.00;67.20
23769;DHT22;12064;50.890;5.424;2022-07-11T15:56:37;27.90;67.50
23769;DHT22;12064;50.890;5.424;2022-07-11T16:05:28;28.00;67.20
23769;DHT22;12064;50.890;5.424;2022-07-11T16:14:19;28.00;68.10
23769;DHT22;12064;50.890;5.424;2022-07-11T16:23:09;28.00;67.80
23769;DHT22;12064;50.890;5.424;2022-07-11T16:32:00;27.90;67.90
23769;DHT22;12064;50.890;5.424;2022-07-11T16:40:51;27.90;67.80
23769;DHT22;12064;50.890;5.424;2022-07-11T16:50:00;28.00;67.80
23769;DHT22;12064;50.890;5.424;2022-07-11T16:58:50;27.90;67.70
23769;DHT22;12064;50.890;5.424;2022-07-11T17:07:41;28.00;67.80
23769;DHT22;12064;50.890;5.424;2022-07-11T17:16:52;28.00;67.90
23769;DHT22;12064;50.890;5.424;2022-07-11T17:25:45;28.00;67.70
23769;DHT22;12064;50.890;5.424;2022-07-11T17:34:36;28.00;67.70
23769;DHT22;12064;50.890;5.424;2022-07-11T17:43:26;28.00;67.70
23769;DHT22;12064;50.890;5.424;2022-07-11T17:52:20;28.00;67.80
23769;DHT22;12064;50.890;5.424;2022-07-11T18:01:10;28.00;67.90
23769;DHT22;12064;50.890;5.424;2022-07-11T18:10:03;28.00;67.80
23769;DHT22;12064;50.890;5.424;2022-07-11T18:18:54;28.00;67.80
23769;DHT22;12064;50.890;5.424;2022-07-11T18:27:45;28.10;67.90
23769;DHT22;12064;50.890;5.424;2022-07-11T18:36:35;28.10;68.00
23769;DHT22;12064;50.890;5.424;2022-07-11T18:45:26;28.00;68.10
23769;DHT22;12064;50.890;5.424;2022-07-11T18:54:17;28.10;67.70
23769;DHT22;12064;50.890;5.424;2022-07-11T19:03:07;28.10;67.60
23769;DHT22;12064;50.890;5.424;2022-07-11T19:11:58;28.20;67.20
23769;DHT22;12064;50.890;5.424;2022-07-11T19:20:49;28.10;67.40
23769;DHT22;12064;50.890;5.424;2022-07-11T19:29:39;28.10;67.40
23769;DHT22;12064;50.890;5.424;2022-07-11T19:38:33;28.30;67.00
23769;DHT22;12064;50.890;5.424;2022-07-11T19:47:26;28.20;66.90
23769;DHT22;12064;50.890;5.424;2022-07-11T19:56:20;28.20;67.00
23769;DHT22;12064;50.890;5.424;2022-07-11T20:05:29;28.20;66.80
23769;DHT22;12064;50.890;5.424;2022-07-11T20:14:20;28.20;66.80
23769;DHT22;12064;50.890;5.424;2022-07-11T20:23:14;28.20;67.00
23769;DHT22;12064;50.890;5.424;2022-07-11T20:32:05;28.20;66.70
23769;DHT22;12064;50.890;5.424;2022-07-11T20:40:59;28.30;66.60
23769;DHT22;12064;50.890;5.424;2022-07-11T20:49:50;28.30;66.70
23769;DHT22;12064;50.890;5.424;2022-07-11T20:58:40;28.10;67.50
23769;DHT22;12064;50.890;5.424;2022-07-11T21:07:31;28.20;67.70
23769;DHT22;12064;50.890;5.424;2022-07-11T21:16:26;28.20;68.30
23769;DHT22;12064;50.890;5.424;2022-07-11T21:25:16;28.10;68.30
23769;DHT22;12064;50.890;5.424;2022-07-11T21:34:10;28.10;68.10
23769;DHT22;12064;50.890;5.424;2022-07-11T21:43:05;28.00;68.50
23769;DHT22;12064;50.890;5.424;2022-07-11T21:51:57;28.00;68.30
23769;DHT22;12064;50.890;5.424;2022-07-11T22:00:47;27.90;68.70
23769;DHT22;12064;50.890;5.424;2022-07-11T22:09:39;27.70;69.30
23769;DHT22;12064;50.890;5.424;2022-07-11T22:18:29;27.70;69.30
23769;DHT22;12064;50.890;5.424;2022-07-11T22:27:20;27.60;69.60
23769;DHT22;12064;50.890;5.424;2022-07-11T22:36:10;27.60;69.50
23769;DHT22;12064;50.890;5.424;2022-07-11T22:45:02;27.60;69.40
23769;DHT22;12064;50.890;5.424;2022-07-11T22:53:53;27.50;69.30
23769;DHT22;12064;50.890;5.424;2022-07-11T23:02:44;27.50;69.20
23769;DHT22;12064;50.890;5.424;2022-07-11T23:11:34;27.40;69.10
23769;DHT22;12064;50.890;5.424;2022-07-11T23:20:29;27.40;69.30
23769;DHT22;12064;50.890;5.424;2022-07-11T23:29:22;27.40;69.30
23769;DHT22;12064;50.890;5.424;2022-07-11T23:38:14;27.30;69.00
23769;DHT22;12064;50.890;5.424;2022-07-11T23:47:05;27.30;68.90
23769;DHT22;12064;50.890;5.424;2022-07-11T23:55:55;27.40;68.60
